PWSweather.com
Personal Weather Stations
Station Observations
PWSLORIS
The Farm At Fox Bay, Loris, SC 29569

The Farm At Fox BayLoris, SC 29569

Lat: 34.067097, Lon: -78.86907

Elevation: 108

Station Type: Davis Vantage Pro2 with 24 hr. FARS and solar

http://www.lorisweather.com

Latest ConditionsUpdated 10:15:00 AM EDT Sunday, Jul 21, 2019
Currently Today's Max Today's Min Today's Average
Temperature 89.5°F31.9°C 89.5°F31.9°C 76.5°F24.7°C 80.2°F26.8°C
Dew Point 74.3°F23.5°C 74.9°F23.8°C 68.0°F20.0°C 70.8°F21.6°C
Winds 1.2 mph WSW1.9 kmh WSW 1.2 mph -1.9 kmh - - 0.1 mph 0.2 kmh
Wind Gusts 2.3 mph3.7 kmh 2.3 mph3.7 kmh - -
Humidity 61% 81% 61% 73%
Pressure 30.02 in1016.6 mb 30.03 in1016.9 mb 29.98 in1015.2 mb -
Hour Temp Dew Point Humidity Winds Wind Gusts Pressure Precip Precip Rate Daily Precip Total
10:15 AM 89.5°F31.9°C 74.3°F23.5°C 61% 1.2 mph WSW1.9 kmh WSW 2.3 mph3.7 kmh 30.02 in1016.6 mb - 0.00 in0.0 mm 0.00 in0.0 mm
10:00 AM 88.7°F31.5°C 74.9°F23.8°C 64% Calm Calm -- 30.02 in1016.6 mb - 0.00 in0.0 mm 0.00 in0.0 mm
09:45 AM 87.7°F30.9°C 74.5°F23.6°C 65% Calm Calm -- 30.02 in1016.6 mb - 0.00 in0.0 mm 0.00 in0.0 mm
09:30 AM 87.3°F30.7°C 74.5°F23.6°C 66% 1.2 mph N1.9 kmh N -- 30.02 in1016.6 mb - 0.00 in0.0 mm 0.00 in0.0 mm
09:15 AM 86.1°F30.1°C 74.3°F23.5°C 68% 1.2 mph W1.9 kmh W 1.2 mph1.9 kmh 30.02 in1016.6 mb - 0.00 in0.0 mm 0.00 in0.0 mm
09:00 AM 85.3°F29.6°C 74.8°F23.8°C 71% Calm Calm 2.3 mph3.7 kmh 30.02 in1016.6 mb - 0.00 in0.0 mm 0.00 in0.0 mm
08:45 AM 84.3°F29.1°C 74.7°F23.7°C 73% Calm Calm -- 30.02 in1016.6 mb - 0.00 in0.0 mm 0.00 in0.0 mm
08:30 AM 83.4°F28.6°C 74.2°F23.4°C 74% Calm Calm -- 30.02 in1016.6 mb - 0.00 in0.0 mm 0.00 in0.0 mm
08:15 AM 82.5°F28.1°C 73.8°F23.2°C 75% Calm Calm 2.3 mph3.7 kmh 30.02 in1016.6 mb - 0.00 in0.0 mm 0.00 in0.0 mm
08:00 AM 81.5°F27.5°C 73.2°F22.9°C 76% Calm Calm -- 30.02 in1016.6 mb - 0.00 in0.0 mm 0.00 in0.0 mm
07:45 AM 80.3°F26.8°C 72.4°F22.4°C 77% Calm Calm -- 30.01 in1016.3 mb - 0.00 in0.0 mm 0.00 in0.0 mm
07:30 AM 79.3°F26.3°C 71.9°F22.2°C 78% Calm Calm -- 30.01 in1016.3 mb - 0.00 in0.0 mm 0.00 in0.0 mm
07:15 AM 78.3°F25.7°C 71.6°F22.0°C 80% Calm Calm -- 30.00 in1015.9 mb - 0.00 in0.0 mm 0.00 in0.0 mm
07:00 AM 77.4°F25.2°C 71.1°F21.7°C 81% Calm Calm -- 30.00 in1015.9 mb - 0.00 in0.0 mm 0.00 in0.0 mm
06:45 AM 76.6°F24.8°C 70.3°F21.3°C 81% Calm Calm -- 30.01 in1016.3 mb - 0.00 in0.0 mm 0.00 in0.0 mm
06:30 AM 76.5°F24.7°C 70.2°F21.2°C 81% Calm Calm -- 30.00 in1015.9 mb - 0.00 in0.0 mm 0.00 in0.0 mm
06:15 AM 76.6°F24.8°C 69.9°F21.1°C 80% Calm Calm -- 30.00 in1015.9 mb - 0.00 in0.0 mm 0.00 in0.0 mm
06:00 AM 76.8°F24.9°C 70.2°F21.2°C 80% Calm Calm -- 30.00 in1015.9 mb - 0.00 in0.0 mm 0.00 in0.0 mm
05:45 AM 76.8°F24.9°C 70.1°F21.2°C 80% Calm Calm -- 29.99 in1015.6 mb - 0.00 in0.0 mm 0.00 in0.0 mm
05:30 AM 76.8°F24.9°C 70.2°F21.2°C 80% Calm Calm -- 29.99 in1015.6 mb - 0.00 in0.0 mm 0.00 in0.0 mm
05:15 AM 76.8°F24.9°C 69.8°F21.0°C 79% Calm Calm -- 29.98 in1015.2 mb - 0.00 in0.0 mm 0.00 in0.0 mm
05:00 AM 77.1°F25.1°C 70.1°F21.2°C 79% Calm Calm -- 29.98 in1015.2 mb - 0.00 in0.0 mm 0.00 in0.0 mm
04:45 AM 77.3°F25.2°C 70.2°F21.2°C 79% Calm Calm -- 29.98 in1015.2 mb - 0.00 in0.0 mm 0.00 in0.0 mm
04:30 AM 77.3°F25.2°C 68.7°F20.4°C 75% Calm Calm -- 29.99 in1015.6 mb - 0.00 in0.0 mm 0.00 in0.0 mm
04:15 AM 77.7°F25.4°C 68.4°F20.2°C 73% Calm Calm -- 29.98 in1015.2 mb - 0.00 in0.0 mm 0.00 in0.0 mm
04:00 AM 78.0°F25.6°C 68.2°F20.1°C 72% Calm Calm -- 29.98 in1015.2 mb - 0.00 in0.0 mm 0.00 in0.0 mm
03:45 AM 78.1°F25.6°C 68.0°F20.0°C 71% Calm Calm -- 29.98 in1015.2 mb - 0.00 in0.0 mm 0.00 in0.0 mm
03:30 AM 78.2°F25.7°C 68.0°F20.0°C 71% Calm Calm -- 29.99 in1015.6 mb - 0.00 in0.0 mm 0.00 in0.0 mm
03:15 AM 78.5°F25.8°C 68.3°F20.2°C 71% Calm Calm -- 29.99 in1015.6 mb - 0.00 in0.0 mm 0.00 in0.0 mm
03:00 AM 79.1°F26.2°C 68.9°F20.5°C 71% Calm Calm -- 29.99 in1015.6 mb - 0.00 in0.0 mm 0.00 in0.0 mm
02:45 AM 79.0°F26.1°C 69.2°F20.7°C 72% Calm Calm -- 30.00 in1015.9 mb - 0.00 in0.0 mm 0.00 in0.0 mm
02:30 AM 79.3°F26.3°C 69.5°F20.8°C 72% Calm Calm -- 30.01 in1016.3 mb - 0.00 in0.0 mm 0.00 in0.0 mm
02:15 AM 79.4°F26.3°C 69.6°F20.9°C 72% Calm Calm -- 30.01 in1016.3 mb - 0.00 in0.0 mm 0.00 in0.0 mm
02:00 AM 79.4°F26.3°C 69.6°F20.9°C 72% Calm Calm -- 30.01 in1016.3 mb - 0.00 in0.0 mm 0.00 in0.0 mm
01:45 AM 79.6°F26.4°C 69.4°F20.8°C 71% Calm Calm -- 30.01 in1016.3 mb - 0.00 in0.0 mm 0.00 in0.0 mm
01:30 AM 79.6°F26.4°C 69.4°F20.8°C 71% Calm Calm -- 30.02 in1016.6 mb - 0.00 in0.0 mm 0.00 in0.0 mm
01:15 AM 79.8°F26.6°C 69.5°F20.8°C 71% Calm Calm -- 30.02 in1016.6 mb - 0.00 in0.0 mm 0.00 in0.0 mm
01:00 AM 80.0°F26.7°C 69.7°F20.9°C 71% Calm Calm 2.3 mph3.7 kmh 30.03 in1016.9 mb - 0.00 in0.0 mm 0.00 in0.0 mm
12:45 AM 79.9°F26.6°C 69.7°F20.9°C 71% Calm Calm 2.3 mph3.7 kmh 30.03 in1016.9 mb - 0.00 in0.0 mm 0.00 in0.0 mm
12:30 AM 80.2°F26.8°C 69.5°F20.8°C 70% Calm Calm -- 30.02 in1016.6 mb - 0.00 in0.0 mm 0.00 in0.0 mm
12:15 AM 80.3°F26.8°C 69.6°F20.9°C 70% Calm Calm 1.2 mph1.9 kmh 30.02 in1016.6 mb - 0.00 in0.0 mm 0.00 in0.0 mm
12:00 AM 80.4°F26.9°C 69.7°F20.9°C 70% Calm Calm -- 30.02 in1016.6 mb - 0.00 in0.0 mm 0.00 in0.0 mm